sensor_id;sensor_type;location;lat;lon;timestamp;temperature;humidity
16625;DHT22;8426;48.496;9.098;2022-10-31T00:01:36;8.60;99.90
16625;DHT22;8426;48.496;9.098;2022-10-31T00:06:39;8.60;99.90
16625;DHT22;8426;48.496;9.098;2022-10-31T00:11:45;8.50;99.90
16625;DHT22;8426;48.496;9.098;2022-10-31T00:16:48;8.40;99.90
16625;DHT22;8426;48.496;9.098;2022-10-31T00:21:56;8.30;99.90
16625;DHT22;8426;48.496;9.098;2022-10-31T00:27:00;8.20;99.90
16625;DHT22;8426;48.496;9.098;2022-10-31T00:32:04;8.30;99.90
16625;DHT22;8426;48.496;9.098;2022-10-31T00:37:09;8.30;99.90
16625;DHT22;8426;48.496;9.098;2022-10-31T00:42:14;8.50;99.90
16625;DHT22;8426;48.496;9.098;2022-10-31T00:47:17;8.50;99.90
16625;DHT22;8426;48.496;9.098;2022-10-31T00:52:20;8.50;99.90
16625;DHT22;8426;48.496;9.098;2022-10-31T00:57:26;8.40;99.90
16625;DHT22;8426;48.496;9.098;2022-10-31T01:02:29;8.30;99.90
16625;DHT22;8426;48.496;9.098;2022-10-31T01:07:35;8.20;99.90
16625;DHT22;8426;48.496;9.098;2022-10-31T01:12:41;8.10;99.90
16625;DHT22;8426;48.496;9.098;2022-10-31T01:17:46;8.10;99.90
16625;DHT22;8426;48.496;9.098;2022-10-31T01:22:49;8.10;99.90
16625;DHT22;8426;48.496;9.098;2022-10-31T01:27:58;8.00;99.90
16625;DHT22;8426;48.496;9.098;2022-10-31T01:33:02;7.80;99.90
16625;DHT22;8426;48.496;9.098;2022-10-31T01:38:05;7.70;99.90
16625;DHT22;8426;48.496;9.098;2022-10-31T01:43:12;7.80;99.90
16625;DHT22;8426;48.496;9.098;2022-10-31T01:48:19;7.80;99.90
16625;DHT22;8426;48.496;9.098;2022-10-31T01:53:29;7.80;99.90
16625;DHT22;8426;48.496;9.098;2022-10-31T01:58:33;7.90;99.90
16625;DHT22;8426;48.496;9.098;2022-10-31T02:03:37;8.10;99.90
16625;DHT22;8426;48.496;9.098;2022-10-31T02:08:41;8.10;99.90
16625;DHT22;8426;48.496;9.098;2022-10-31T02:13:53;8.10;99.90
16625;DHT22;8426;48.496;9.098;2022-10-31T02:18:57;8.10;99.90
16625;DHT22;8426;48.496;9.098;2022-10-31T02:24:21;8.10;99.90
16625;DHT22;8426;48.496;9.098;2022-10-31T02:35:30;8.10;99.90
16625;DHT22;8426;48.496;9.098;2022-10-31T02:40:43;8.10;99.90
16625;DHT22;8426;48.496;9.098;2022-10-31T02:45:57;8.10;99.90
16625;DHT22;8426;48.496;9.098;2022-10-31T02:51:04;8.00;99.90
16625;DHT22;8426;48.496;9.098;2022-10-31T02:56:12;7.90;99.90
16625;DHT22;8426;48.496;9.098;2022-10-31T03:01:36;7.80;99.90
16625;DHT22;8426;48.496;9.098;2022-10-31T03:06:45;7.60;99.90
16625;DHT22;8426;48.496;9.098;2022-10-31T03:11:58;7.50;99.90
16625;DHT22;8426;48.496;9.098;2022-10-31T03:17:04;7.40;99.90
16625;DHT22;8426;48.496;9.098;2022-10-31T03:22:16;7.40;99.90
16625;DHT22;8426;48.496;9.098;2022-10-31T03:27:23;7.40;99.90
16625;DHT22;8426;48.496;9.098;2022-10-31T03:32:30;7.30;99.90
16625;DHT22;8426;48.496;9.098;2022-10-31T03:37:40;7.30;99.90
16625;DHT22;8426;48.496;9.098;2022-10-31T03:42:48;7.20;99.90
16625;DHT22;8426;48.496;9.098;2022-10-31T03:47:55;7.10;99.90
16625;DHT22;8426;48.496;9.098;2022-10-31T03:53:06;7.10;99.90
16625;DHT22;8426;48.496;9.098;2022-10-31T03:58:18;7.10;99.90
16625;DHT22;8426;48.496;9.098;2022-10-31T04:03:25;7.10;99.90
16625;DHT22;8426;48.496;9.098;2022-10-31T04:08:33;7.10;99.90
16625;DHT22;8426;48.496;9.098;2022-10-31T04:13:40;7.10;99.90
16625;DHT22;8426;48.496;9.098;2022-10-31T04:18:45;7.10;99.90
16625;DHT22;8426;48.496;9.098;2022-10-31T04:23:56;7.00;99.90
16625;DHT22;8426;48.496;9.098;2022-10-31T04:28:59;7.00;99.90
16625;DHT22;8426;48.496;9.098;2022-10-31T04:34:06;7.00;99.90
16625;DHT22;8426;48.496;9.098;2022-10-31T04:39:11;7.00;99.90
16625;DHT22;8426;48.496;9.098;2022-10-31T04:44:16;6.80;99.90
16625;DHT22;8426;48.496;9.098;2022-10-31T04:49:19;6.60;99.90
16625;DHT22;8426;48.496;9.098;2022-10-31T04:54:24;6.50;99.90
16625;DHT22;8426;48.496;9.098;2022-10-31T04:59:28;6.40;99.90
16625;DHT22;8426;48.496;9.098;2022-10-31T05:04:31;6.30;99.90
16625;DHT22;8426;48.496;9.098;2022-10-31T05:09:36;6.30;99.90
16625;DHT22;8426;48.496;9.098;2022-10-31T05:14:39;6.30;99.90
16625;DHT22;8426;48.496;9.098;2022-10-31T05:19:48;6.30;99.90
16625;DHT22;8426;48.496;9.098;2022-10-31T05:24:53;6.10;99.90
16625;DHT22;8426;48.496;9.098;2022-10-31T05:29:58;6.00;99.90
16625;DHT22;8426;48.496;9.098;2022-10-31T05:35:02;6.00;99.90
16625;DHT22;8426;48.496;9.098;2022-10-31T05:40:10;6.00;99.90
16625;DHT22;8426;48.496;9.098;2022-10-31T05:45:15;6.00;99.90
16625;DHT22;8426;48.496;9.098;2022-10-31T05:50:22;5.90;99.90
16625;DHT22;8426;48.496;9.098;2022-10-31T05:55:27;6.00;99.90
16625;DHT22;8426;48.496;9.098;2022-10-31T06:00:37;6.10;99.90
16625;DHT22;8426;48.496;9.098;2022-10-31T06:05:42;6.10;99.90
16625;DHT22;8426;48.496;9.098;2022-10-31T06:10:54;6.10;99.90
16625;DHT22;8426;48.496;9.098;2022-10-31T06:15:57;6.20;99.90
16625;DHT22;8426;48.496;9.098;2022-10-31T06:21:01;6.20;99.90
16625;DHT22;8426;48.496;9.098;2022-10-31T06:26:05;6.30;99.90
16625;DHT22;8426;48.496;9.098;2022-10-31T06:31:09;6.20;99.90
16625;DHT22;8426;48.496;9.098;2022-10-31T06:36:14;6.40;99.90
16625;DHT22;8426;48.496;9.098;2022-10-31T06:41:19;6.50;99.90
16625;DHT22;8426;48.496;9.098;2022-10-31T06:46:22;6.60;99.90
16625;DHT22;8426;48.496;9.098;2022-10-31T06:51:35;6.80;99.90
16625;DHT22;8426;48.496;9.098;2022-10-31T06:56:40;6.90;99.90
16625;DHT22;8426;48.496;9.098;2022-10-31T07:01:43;7.10;99.90
16625;DHT22;8426;48.496;9.098;2022-10-31T07:06:47;7.20;99.90
16625;DHT22;8426;48.496;9.098;2022-10-31T07:11:54;7.40;99.90
16625;DHT22;8426;48.496;9.098;2022-10-31T07:16:57;7.70;99.90
16625;DHT22;8426;48.496;9.098;2022-10-31T07:22:04;8.00;99.90
16625;DHT22;8426;48.496;9.098;2022-10-31T07:27:09;8.30;99.90
16625;DHT22;8426;48.496;9.098;2022-10-31T07:32:13;8.60;99.90
16625;DHT22;8426;48.496;9.098;2022-10-31T07:37:16;8.90;99.90
16625;DHT22;8426;48.496;9.098;2022-10-31T07:42:21;9.20;99.90
16625;DHT22;8426;48.496;9.098;2022-10-31T07:47:24;9.50;99.90
16625;DHT22;8426;48.496;9.098;2022-10-31T07:52:58;9.80;99.90
16625;DHT22;8426;48.496;9.098;2022-10-31T07:58:05;10.10;99.90
16625;DHT22;8426;48.496;9.098;2022-10-31T08:03:14;10.30;99.90
16625;DHT22;8426;48.496;9.098;2022-10-31T08:08:18;10.60;99.90
16625;DHT22;8426;48.496;9.098;2022-10-31T08:13:22;11.00;99.90
16625;DHT22;8426;48.496;9.098;2022-10-31T08:18:28;11.50;99.90
16625;DHT22;8426;48.496;9.098;2022-10-31T08:23:31;11.80;99.90
16625;DHT22;8426;48.496;9.098;2022-10-31T08:28:36;12.30;99.90
16625;DHT22;8426;48.496;9.098;2022-10-31T08:33:39;12.90;99.90
16625;DHT22;8426;48.496;9.098;2022-10-31T08:38:43;13.70;99.90
16625;DHT22;8426;48.496;9.098;2022-10-31T08:43:48;14.00;99.90
16625;DHT22;8426;48.496;9.098;2022-10-31T08:48:52;14.20;99.90
16625;DHT22;8426;48.496;9.098;2022-10-31T08:53:55;14.20;99.90
16625;DHT22;8426;48.496;9.098;2022-10-31T08:59:00;14.60;99.90
16625;DHT22;8426;48.496;9.098;2022-10-31T09:04:05;14.80;99.90
16625;DHT22;8426;48.496;9.098;2022-10-31T09:09:08;15.10;99.90
16625;DHT22;8426;48.496;9.098;2022-10-31T09:14:13;15.40;99.90
16625;DHT22;8426;48.496;9.098;2022-10-31T09:19:16;15.80;99.90
16625;DHT22;8426;48.496;9.098;2022-10-31T09:24:21;15.90;99.90
16625;DHT22;8426;48.496;9.098;2022-10-31T09:29:25;16.00;99.90
16625;DHT22;8426;48.496;9.098;2022-10-31T09:34:29;16.20;99.90
16625;DHT22;8426;48.496;9.098;2022-10-31T09:39:32;16.50;99.90
16625;DHT22;8426;48.496;9.098;2022-10-31T09:44:50;16.50;99.90
16625;DHT22;8426;48.496;9.098;2022-10-31T09:50:09;16.20;99.90
16625;DHT22;8426;48.496;9.098;2022-10-31T09:55:17;15.80;99.90
16625;DHT22;8426;48.496;9.098;2022-10-31T10:00:23;16.10;99.90
16625;DHT22;8426;48.496;9.098;2022-10-31T10:05:32;16.10;99.90
16625;DHT22;8426;48.496;9.098;2022-10-31T10:10:45;15.90;99.90
16625;DHT22;8426;48.496;9.098;2022-10-31T10:16:03;15.90;99.90
16625;DHT22;8426;48.496;9.098;2022-10-31T10:21:20;15.60;99.90
16625;DHT22;8426;48.496;9.098;2022-10-31T10:26:29;15.00;99.90
16625;DHT22;8426;48.496;9.098;2022-10-31T10:31:38;15.20;99.90
16625;DHT22;8426;48.496;9.098;2022-10-31T10:36:46;15.30;99.90
16625;DHT22;8426;48.496;9.098;2022-10-31T10:41:57;15.40;99.90
16625;DHT22;8426;48.496;9.098;2022-10-31T10:47:20;15.70;99.90
16625;DHT22;8426;48.496;9.098;2022-10-31T10:52:48;16.10;99.90
16625;DHT22;8426;48.496;9.098;2022-10-31T10:57:56;16.50;99.90
16625;DHT22;8426;48.496;9.098;2022-10-31T11:03:03;17.20;99.90
16625;DHT22;8426;48.496;9.098;2022-10-31T11:08:08;17.40;99.90
16625;DHT22;8426;48.496;9.098;2022-10-31T11:13:23;17.20;99.90
16625;DHT22;8426;48.496;9.098;2022-10-31T11:18:30;17.20;99.90
16625;DHT22;8426;48.496;9.098;2022-10-31T11:23:35;17.40;99.90
16625;DHT22;8426;48.496;9.098;2022-10-31T11:28:38;17.90;99.90
16625;DHT22;8426;48.496;9.098;2022-10-31T11:33:48;17.80;99.90
16625;DHT22;8426;48.496;9.098;2022-10-31T11:38:53;18.10;99.90
16625;DHT22;8426;48.496;9.098;2022-10-31T11:43:58;18.20;99.90
16625;DHT22;8426;48.496;9.098;2022-10-31T11:49:05;18.40;99.90
16625;DHT22;8426;48.496;9.098;2022-10-31T11:54:20;18.40;99.90
16625;DHT22;8426;48.496;9.098;2022-10-31T11:59:27;18.60;99.90
16625;DHT22;8426;48.496;9.098;2022-10-31T12:04:40;18.50;99.90
16625;DHT22;8426;48.496;9.098;2022-10-31T12:09:45;18.20;99.90
16625;DHT22;8426;48.496;9.098;2022-10-31T12:14:56;18.00;99.90
16625;DHT22;8426;48.496;9.098;2022-10-31T12:20:16;17.80;99.90
16625;DHT22;8426;48.496;9.098;2022-10-31T12:25:31;17.70;99.90
16625;DHT22;8426;48.496;9.098;2022-10-31T12:30:47;17.60;99.90
16625;DHT22;8426;48.496;9.098;2022-10-31T12:36:02;17.60;99.90
16625;DHT22;8426;48.496;9.098;2022-10-31T12:41:27;17.40;99.90
16625;DHT22;8426;48.496;9.098;2022-10-31T12:46:50;17.30;99.90
16625;DHT22;8426;48.496;9.098;2022-10-31T12:52:10;17.30;99.90
16625;DHT22;8426;48.496;9.098;2022-10-31T12:57:23;17.30;99.90
16625;DHT22;8426;48.496;9.098;2022-10-31T13:02:29;17.30;99.90
16625;DHT22;8426;48.496;9.098;2022-10-31T13:07:37;17.30;99.90
16625;DHT22;8426;48.496;9.098;2022-10-31T13:12:42;17.30;99.90
16625;DHT22;8426;48.496;9.098;2022-10-31T13:17:48;17.50;99.90
16625;DHT22;8426;48.496;9.098;2022-10-31T13:22:59;17.60;99.90
16625;DHT22;8426;48.496;9.098;2022-10-31T13:28:29;18.00;99.90
16625;DHT22;8426;48.496;9.098;2022-10-31T13:33:38;18.10;99.90
16625;DHT22;8426;48.496;9.098;2022-10-31T13:38:49;18.10;99.90
16625;DHT22;8426;48.496;9.098;2022-10-31T13:44:00;18.20;99.90
16625;DHT22;8426;48.496;9.098;2022-10-31T13:49:19;18.40;99.90
16625;DHT22;8426;48.496;9.098;2022-10-31T13:54:34;18.40;99.90
16625;DHT22;8426;48.496;9.098;2022-10-31T13:59:38;18.40;99.90
16625;DHT22;8426;48.496;9.098;2022-10-31T14:04:46;18.80;99.90
16625;DHT22;8426;48.496;9.098;2022-10-31T14:09:56;19.10;99.90
16625;DHT22;8426;48.496;9.098;2022-10-31T14:15:04;19.20;99.90
16625;DHT22;8426;48.496;9.098;2022-10-31T14:20:37;19.00;99.90
16625;DHT22;8426;48.496;9.098;2022-10-31T14:25:43;18.90;99.90
16625;DHT22;8426;48.496;9.098;2022-10-31T14:30:52;18.40;99.90
16625;DHT22;8426;48.496;9.098;2022-10-31T14:36:00;18.10;99.90
16625;DHT22;8426;48.496;9.098;2022-10-31T14:41:21;17.80;99.90
16625;DHT22;8426;48.496;9.098;2022-10-31T14:46:40;17.40;99.90
16625;DHT22;8426;48.496;9.098;2022-10-31T14:51:48;17.20;99.90
16625;DHT22;8426;48.496;9.098;2022-10-31T14:56:56;17.20;99.90
16625;DHT22;8426;48.496;9.098;2022-10-31T15:02:18;17.00;99.90
16625;DHT22;8426;48.496;9.098;2022-10-31T15:07:25;16.60;99.90
16625;DHT22;8426;48.496;9.098;2022-10-31T15:12:34;16.20;99.90
16625;DHT22;8426;48.496;9.098;2022-10-31T15:17:44;15.80;99.90
16625;DHT22;8426;48.496;9.098;2022-10-31T15:22:54;15.50;99.90
16625;DHT22;8426;48.496;9.098;2022-10-31T15:28:00;15.10;99.90
16625;DHT22;8426;48.496;9.098;2022-10-31T15:33:18;14.70;99.90
16625;DHT22;8426;48.496;9.098;2022-10-31T15:38:24;14.30;99.90
16625;DHT22;8426;48.496;9.098;2022-10-31T15:43:33;14.10;99.90
16625;DHT22;8426;48.496;9.098;2022-10-31T15:48:37;13.80;99.90
16625;DHT22;8426;48.496;9.098;2022-10-31T15:53:46;13.60;99.90
16625;DHT22;8426;48.496;9.098;2022-10-31T15:58:53;13.40;99.90
16625;DHT22;8426;48.496;9.098;2022-10-31T16:04:03;13.30;99.90
16625;DHT22;8426;48.496;9.098;2022-10-31T16:09:21;13.30;99.90
16625;DHT22;8426;48.496;9.098;2022-10-31T16:14:28;13.20;99.90
16625;DHT22;8426;48.496;9.098;2022-10-31T16:19:35;13.10;99.90
16625;DHT22;8426;48.496;9.098;2022-10-31T16:24:45;12.90;99.90
16625;DHT22;8426;48.496;9.098;2022-10-31T16:29:53;12.70;99.90
16625;DHT22;8426;48.496;9.098;2022-10-31T16:35:17;12.40;99.90
16625;DHT22;8426;48.496;9.098;2022-10-31T16:40:22;12.20;99.90
16625;DHT22;8426;48.496;9.098;2022-10-31T16:45:31;12.00;99.90
16625;DHT22;8426;48.496;9.098;2022-10-31T16:50:38;11.70;99.90
16625;DHT22;8426;48.496;9.098;2022-10-31T16:55:43;11.50;99.90
16625;DHT22;8426;48.496;9.098;2022-10-31T17:00:49;11.20;99.90
16625;DHT22;8426;48.496;9.098;2022-10-31T17:05:53;11.10;99.90
16625;DHT22;8426;48.496;9.098;2022-10-31T17:10:59;10.90;99.90
16625;DHT22;8426;48.496;9.098;2022-10-31T17:16:05;10.80;99.90
16625;DHT22;8426;48.496;9.098;2022-10-31T17:21:14;10.70;99.90
16625;DHT22;8426;48.496;9.098;2022-10-31T17:26:20;10.60;99.90
16625;DHT22;8426;48.496;9.098;2022-10-31T17:31:28;10.50;99.90
16625;DHT22;8426;48.496;9.098;2022-10-31T17:36:32;10.50;99.90
16625;DHT22;8426;48.496;9.098;2022-10-31T17:41:36;10.40;99.90
16625;DHT22;8426;48.496;9.098;2022-10-31T17:46:40;10.30;99.90
16625;DHT22;8426;48.496;9.098;2022-10-31T17:51:44;10.30;99.90
16625;DHT22;8426;48.496;9.098;2022-10-31T17:56:47;10.30;99.90
16625;DHT22;8426;48.496;9.098;2022-10-31T18:01:53;10.40;99.90
16625;DHT22;8426;48.496;9.098;2022-10-31T18:06:59;10.30;99.90
16625;DHT22;8426;48.496;9.098;2022-10-31T18:12:02;10.30;99.90
16625;DHT22;8426;48.496;9.098;2022-10-31T18:17:07;10.20;99.90
16625;DHT22;8426;48.496;9.098;2022-10-31T18:22:11;10.10;99.90
16625;DHT22;8426;48.496;9.098;2022-10-31T18:27:15;10.40;99.90
16625;DHT22;8426;48.496;9.098;2022-10-31T18:32:20;10.30;99.90
16625;DHT22;8426;48.496;9.098;2022-10-31T18:37:29;10.30;99.90
16625;DHT22;8426;48.496;9.098;2022-10-31T18:42:32;10.40;99.90
16625;DHT22;8426;48.496;9.098;2022-10-31T18:47:39;10.30;99.90
16625;DHT22;8426;48.496;9.098;2022-10-31T18:52:42;10.10;99.90
16625;DHT22;8426;48.496;9.098;2022-10-31T18:57:45;10.10;99.90
16625;DHT22;8426;48.496;9.098;2022-10-31T19:02:50;10.30;99.90
16625;DHT22;8426;48.496;9.098;2022-10-31T19:07:58;10.20;99.90
16625;DHT22;8426;48.496;9.098;2022-10-31T19:13:02;10.00;99.90
16625;DHT22;8426;48.496;9.098;2022-10-31T19:18:08;10.30;99.90
16625;DHT22;8426;48.496;9.098;2022-10-31T19:23:11;10.50;99.90
16625;DHT22;8426;48.496;9.098;2022-10-31T19:28:14;10.40;99.90
16625;DHT22;8426;48.496;9.098;2022-10-31T19:33:19;10.40;99.90
16625;DHT22;8426;48.496;9.098;2022-10-31T19:38:23;10.40;99.90
16625;DHT22;8426;48.496;9.098;2022-10-31T19:43:27;10.50;99.90
16625;DHT22;8426;48.496;9.098;2022-10-31T19:48:34;10.50;99.90
16625;DHT22;8426;48.496;9.098;2022-10-31T19:53:38;10.60;99.90
16625;DHT22;8426;48.496;9.098;2022-10-31T19:58:41;10.50;99.90
16625;DHT22;8426;48.496;9.098;2022-10-31T20:03:47;10.50;99.90
16625;DHT22;8426;48.496;9.098;2022-10-31T20:08:51;10.50;99.90
16625;DHT22;8426;48.496;9.098;2022-10-31T20:13:55;10.60;99.90
16625;DHT22;8426;48.496;9.098;2022-10-31T20:19:01;10.80;99.90
16625;DHT22;8426;48.496;9.098;2022-10-31T20:24:06;11.40;99.90
16625;DHT22;8426;48.496;9.098;2022-10-31T20:29:12;11.90;99.90
16625;DHT22;8426;48.496;9.098;2022-10-31T20:34:18;12.20;99.90
16625;DHT22;8426;48.496;9.098;2022-10-31T20:39:21;12.40;99.90
16625;DHT22;8426;48.496;9.098;2022-10-31T20:44:24;12.50;99.90
16625;DHT22;8426;48.496;9.098;2022-10-31T20:49:31;12.40;99.90
16625;DHT22;8426;48.496;9.098;2022-10-31T20:54:34;12.30;99.90
16625;DHT22;8426;48.496;9.098;2022-10-31T20:59:37;12.20;99.90
16625;DHT22;8426;48.496;9.098;2022-10-31T21:04:42;12.20;99.90
16625;DHT22;8426;48.496;9.098;2022-10-31T21:09:45;12.00;99.90
16625;DHT22;8426;48.496;9.098;2022-10-31T21:14:49;11.80;99.90
16625;DHT22;8426;48.496;9.098;2022-10-31T21:20:06;11.70;99.90
16625;DHT22;8426;48.496;9.098;2022-10-31T21:25:10;11.50;99.90
16625;DHT22;8426;48.496;9.098;2022-10-31T21:30:14;11.40;99.90
16625;DHT22;8426;48.496;9.098;2022-10-31T21:35:21;11.30;99.90
16625;DHT22;8426;48.496;9.098;2022-10-31T21:40:24;11.20;99.90
16625;DHT22;8426;48.496;9.098;2022-10-31T21:45:27;11.20;99.90
16625;DHT22;8426;48.496;9.098;2022-10-31T21:50:33;11.00;99.90
16625;DHT22;8426;48.496;9.098;2022-10-31T21:55:44;10.90;99.90
16625;DHT22;8426;48.496;9.098;2022-10-31T22:00:51;10.90;99.90
16625;DHT22;8426;48.496;9.098;2022-10-31T22:06:01;10.80;99.90
16625;DHT22;8426;48.496;9.098;2022-10-31T22:11:06;10.80;99.90
16625;DHT22;8426;48.496;9.098;2022-10-31T22:16:11;10.70;99.90
16625;DHT22;8426;48.496;9.098;2022-10-31T22:21:19;10.60;99.90
16625;DHT22;8426;48.496;9.098;2022-10-31T22:26:25;10.60;99.90
16625;DHT22;8426;48.496;9.098;2022-10-31T22:31:32;10.70;99.90
16625;DHT22;8426;48.496;9.098;2022-10-31T22:36:37;10.70;99.90
16625;DHT22;8426;48.496;9.098;2022-10-31T22:41:41;10.70;99.90
16625;DHT22;8426;48.496;9.098;2022-10-31T22:46:44;10.80;99.90
16625;DHT22;8426;48.496;9.098;2022-10-31T22:51:49;10.70;99.90
16625;DHT22;8426;48.496;9.098;2022-10-31T22:56:53;10.80;99.90
16625;DHT22;8426;48.496;9.098;2022-10-31T23:01:57;10.70;99.90
16625;DHT22;8426;48.496;9.098;2022-10-31T23:07:02;10.50;99.90
16625;DHT22;8426;48.496;9.098;2022-10-31T23:12:05;10.40;99.90
16625;DHT22;8426;48.496;9.098;2022-10-31T23:17:23;10.20;99.90
16625;DHT22;8426;48.496;9.098;2022-10-31T23:22:31;10.10;99.90
16625;DHT22;8426;48.496;9.098;2022-10-31T23:27:37;9.90;99.90
16625;DHT22;8426;48.496;9.098;2022-10-31T23:32:40;9.80;99.90
16625;DHT22;8426;48.496;9.098;2022-10-31T23:37:45;9.70;99.90
16625;DHT22;8426;48.496;9.098;2022-10-31T23:42:48;9.90;99.90
16625;DHT22;8426;48.496;9.098;2022-10-31T23:47:52;10.00;99.90
16625;DHT22;8426;48.496;9.098;2022-10-31T23:52:57;10.10;99.90
16625;DHT22;8426;48.496;9.098;2022-10-31T23:58:01;10.20;99.90
